Signal Hill, California
Current Conditions -  °F | °C
As of 3:53 PM on Saturday 22 Nov 2014 (Local Time) from KLGB Reporting Station
Clear Clear  
Wind Chill: 19°   Ceiling: Unl
Heat Index: 19°   Visibility: 10mi
Dew Point: 15°   Wind: 8mph
Humidity: 78%   Direction: 200°SSW
Pressure: 30.02"   Gusts: NA
Location:  33.8°N, 118.16°W
Report Text: KLGB 222353Z 20007KT 10SM CLR 19/15 A3002 RMK AO2 SLP164 T01890150 10206 20189 56012
Loading
Personal Weather Stations






























Interactive Weather Map New forecast layout! Learn more

10-Day Weather Forecast

Advertisements
Track Severe Weather on mobile